createdAt,value
2016-07-03T10:17:00.949Z,-55
2016-07-03T10:18:00.949Z,-56
2016-07-03T10:19:01.010Z,-55
2016-07-03T10:20:00.960Z,-57
2016-07-03T10:21:00.925Z,-59
2016-07-03T10:22:01.208Z,-56
2016-07-03T10:23:00.964Z,-52
2016-07-03T10:24:01.038Z,-55
2016-07-03T10:25:01.280Z,-59
2016-07-03T10:26:01.006Z,-58
2016-07-03T10:27:00.991Z,-53
2016-07-03T10:28:00.985Z,-58
2016-07-03T10:29:00.939Z,-58
2016-07-03T10:30:00.895Z,-60
2016-07-03T10:31:00.890Z,-60
2016-07-03T10:32:00.959Z,-60
2016-07-03T10:33:00.919Z,-61
2016-07-03T10:34:00.936Z,-59
2016-07-03T10:35:00.915Z,-58
2016-07-03T10:36:00.956Z,-59
2016-07-03T10:37:00.913Z,-60
2016-07-03T10:38:01.048Z,-59
2016-07-03T10:39:00.904Z,-59
2016-07-03T10:40:01.172Z,-58
2016-07-03T10:41:01.106Z,-58
2016-07-03T10:42:01.024Z,-57
2016-07-03T10:43:01.042Z,-58
2016-07-03T10:44:00.982Z,-61
2016-07-03T10:45:00.949Z,-59
2016-07-03T10:46:00.941Z,-60
2016-07-03T10:47:01.051Z,-54
2016-07-03T10:48:00.954Z,-55
2016-07-03T10:49:01.012Z,-60
2016-07-03T10:50:01.258Z,-58
2016-07-03T10:51:01.148Z,-59
2016-07-03T10:52:02.183Z,-55
2016-07-03T10:53:01.212Z,-55
2016-07-03T10:54:00.910Z,-55
2016-07-03T10:55:00.893Z,-55
2016-07-03T10:56:00.924Z,-54
2016-07-03T10:57:00.925Z,-57
2016-07-03T10:58:00.951Z,-53
2016-07-03T10:59:00.957Z,-58
2016-07-03T11:00:00.926Z,-57
2016-07-03T11:01:00.987Z,-56
2016-07-03T11:02:01.052Z,-53
2016-07-03T11:03:01.024Z,-59
2016-07-03T11:04:01.245Z,-56
2016-07-03T11:05:01.214Z,-56
2016-07-03T11:06:01.241Z,-56
2016-07-03T11:07:01.145Z,-59
2016-07-03T11:08:01.102Z,-58
2016-07-03T11:09:01.037Z,-57
2016-07-03T11:10:01.060Z,-57
2016-07-03T11:11:01.261Z,-58
2016-07-03T11:12:01.139Z,-59
2016-07-03T11:13:01.013Z,-58
2016-07-03T11:14:01.078Z,-58
2016-07-03T11:15:01.306Z,-58
2016-07-03T11:16:01.185Z,-59
2016-07-03T11:17:01.060Z,-56
2016-07-03T11:18:00.976Z,-58
2016-07-03T11:19:00.991Z,-58
2016-07-03T11:20:01.082Z,-59
2016-07-03T11:21:01.027Z,-57
2016-07-03T11:22:00.984Z,-57
2016-07-03T11:23:00.985Z,-56
2016-07-03T11:24:00.970Z,-57
2016-07-03T11:25:01.033Z,-50
2016-07-03T11:26:00.949Z,-55
2016-07-03T11:27:01.315Z,-52
2016-07-03T11:28:00.974Z,-52
2016-07-03T11:29:01.074Z,-51
2016-07-03T11:30:01.030Z,-54
2016-07-03T11:31:01.192Z,-55
2016-07-03T11:32:01.008Z,-55
2016-07-03T11:33:00.997Z,-49
2016-07-03T11:34:00.952Z,-49
2016-07-03T11:35:00.997Z,-49
2016-07-03T11:36:01.038Z,-50
2016-07-03T11:37:00.978Z,-50
2016-07-03T11:38:01.030Z,-52
2016-07-03T11:39:01.781Z,-54
2016-07-03T11:40:01.098Z,-56
2016-07-03T11:41:00.996Z,-58
2016-07-03T11:42:01.060Z,-52
2016-07-03T11:43:01.068Z,-52
2016-07-03T11:44:01.004Z,-49
2016-07-03T11:45:00.999Z,-49
2016-07-03T11:46:00.979Z,-48
2016-07-03T11:47:02.085Z,-49
2016-07-03T11:48:01.103Z,-48
2016-07-03T11:49:01.133Z,-47
2016-07-03T11:50:01.074Z,-48
2016-07-03T11:51:01.110Z,-50
2016-07-03T11:52:01.726Z,-50
2016-07-03T11:53:01.205Z,-50
2016-07-03T11:54:01.147Z,-49
2016-07-03T11:55:01.111Z,-50
2016-07-03T11:56:01.207Z,-50
2016-07-03T11:57:02.108Z,-52
2016-07-03T11:58:01.208Z,-50
2016-07-03T11:59:01.272Z,-51
2016-07-03T12:00:01.923Z,-49
2016-07-03T12:01:01.168Z,-47
2016-07-03T12:02:01.923Z,-46
2016-07-03T12:03:01.216Z,-52
2016-07-03T12:04:01.228Z,-52
2016-07-03T12:05:01.251Z,-49
2016-07-03T12:06:01.852Z,-52
2016-07-03T12:07:01.160Z,-53
2016-07-03T12:08:01.133Z,-55
2016-07-03T12:09:01.124Z,-52
2016-07-03T12:10:01.115Z,-51
2016-07-03T12:11:01.076Z,-54
2016-07-03T12:12:01.048Z,-53
2016-07-03T12:13:01.091Z,-56
2016-07-03T12:14:01.368Z,-58
2016-07-03T12:15:01.066Z,-58
2016-07-03T12:16:01.178Z,-55
2016-07-03T12:17:01.044Z,-54
2016-07-03T12:18:01.150Z,-53
2016-07-03T12:19:01.594Z,-55
2016-07-03T12:20:01.256Z,-55
2016-07-03T12:21:01.235Z,-56
2016-07-03T12:22:01.159Z,-54
2016-07-03T12:23:01.930Z,-51
2016-07-03T12:24:02.303Z,-53
2016-07-03T12:25:01.762Z,-56
2016-07-03T12:26:01.056Z,-52
2016-07-03T12:27:01.692Z,-56
2016-07-03T12:28:01.408Z,-56
2016-07-03T12:29:01.391Z,-53
2016-07-03T12:30:01.402Z,-54
2016-07-03T12:31:02.458Z,-55
2016-07-03T12:32:02.443Z,-59
2016-07-03T12:33:01.253Z,-55
2016-07-03T12:34:01.116Z,-50
2016-07-03T12:35:01.315Z,-53
2016-07-03T12:36:02.396Z,-55
2016-07-03T12:37:01.345Z,-53
2016-07-03T12:38:02.182Z,-55
2016-07-03T12:39:01.360Z,-52
2016-07-03T12:40:01.702Z,-53
2016-07-03T12:41:01.164Z,-53
2016-07-03T12:42:01.311Z,-53
2016-07-03T12:43:01.145Z,-53
2016-07-03T12:44:01.074Z,-54
2016-07-03T12:45:01.341Z,-56
2016-07-03T12:46:01.459Z,-55
2016-07-03T12:47:01.104Z,-54
2016-07-03T12:48:01.789Z,-52
2016-07-03T12:49:01.319Z,-53
2016-07-03T12:50:01.765Z,-53
2016-07-03T12:51:01.306Z,-52
2016-07-03T12:52:01.016Z,-53
2016-07-03T12:53:01.166Z,-53
2016-07-03T12:54:01.074Z,-54
2016-07-03T12:55:01.575Z,-54
2016-07-03T12:56:01.365Z,-54
2016-07-03T12:57:01.381Z,-53
2016-07-03T12:58:01.191Z,-54
2016-07-03T12:59:01.190Z,-53
2016-07-03T13:00:01.309Z,-53
2016-07-03T13:01:01.422Z,-52
2016-07-03T13:02:01.228Z,-55
2016-07-03T13:03:01.333Z,-54
2016-07-03T13:04:01.196Z,-56
2016-07-03T13:05:01.515Z,-56
2016-07-03T13:06:01.614Z,-54
2016-07-03T13:07:01.137Z,-52
2016-07-03T13:08:01.116Z,-53
2016-07-03T13:09:01.133Z,-54
2016-07-03T13:10:01.076Z,-52
2016-07-03T13:11:01.199Z,-57
2016-07-03T13:12:01.196Z,-53
2016-07-03T13:13:01.029Z,-55
2016-07-03T13:14:01.120Z,-53
2016-07-03T13:15:01.135Z,-53
2016-07-03T13:16:01.174Z,-53
2016-07-03T13:17:01.252Z,-54
2016-07-03T13:18:01.202Z,-54
2016-07-03T13:19:01.172Z,-53
2016-07-03T13:20:03.275Z,-56
2016-07-03T13:21:01.091Z,-54
2016-07-03T13:22:01.081Z,-52
2016-07-03T13:23:01.157Z,-55
2016-07-03T13:24:01.107Z,-54
2016-07-03T13:25:01.069Z,-53
2016-07-03T13:26:01.080Z,-54
2016-07-03T13:27:01.127Z,-53
2016-07-03T13:28:01.545Z,-53
2016-07-03T13:29:01.141Z,-56
2016-07-03T13:30:01.178Z,-56
2016-07-03T13:31:01.363Z,-55
2016-07-03T13:32:06.125Z,-55
2016-07-03T13:33:01.135Z,-52
2016-07-03T13:34:01.111Z,-50
2016-07-03T13:35:01.199Z,-52
2016-07-03T13:36:01.445Z,-47
2016-07-03T13:37:01.143Z,-50
2016-07-03T13:38:01.843Z,-52
2016-07-03T13:39:01.857Z,-49
2016-07-03T13:40:01.243Z,-49
2016-07-03T13:41:01.295Z,-54
2016-07-03T13:42:01.448Z,-52
2016-07-03T13:43:01.276Z,-56
2016-07-03T13:44:01.272Z,-55
2016-07-03T13:45:01.312Z,-56
2016-07-03T13:46:01.111Z,-50
2016-07-03T13:47:01.194Z,-49
2016-07-03T13:48:01.243Z,-52
2016-07-03T13:49:01.649Z,-49
2016-07-03T13:50:01.203Z,-53
2016-07-03T13:51:01.163Z,-52
2016-07-03T13:52:01.363Z,-51
2016-07-03T13:53:01.741Z,-54
2016-07-03T13:54:01.156Z,-52
2016-07-03T13:55:01.226Z,-50
2016-07-03T13:56:03.712Z,-51
2016-07-03T13:57:01.172Z,-53
2016-07-03T13:58:01.266Z,-51
2016-07-03T13:59:01.252Z,-52
2016-07-03T14:00:01.177Z,-49
2016-07-03T14:01:01.427Z,-53
2016-07-03T14:02:01.161Z,-49
2016-07-03T14:03:01.090Z,-49
2016-07-03T14:04:01.148Z,-51
2016-07-03T14:05:01.561Z,-48
2016-07-03T14:06:01.260Z,-50
2016-07-03T14:07:01.300Z,-50
2016-07-03T14:08:01.140Z,-51
2016-07-03T14:09:01.602Z,-53
2016-07-03T14:10:01.153Z,-52
2016-07-03T14:11:01.263Z,-51
2016-07-03T14:12:01.354Z,-50
2016-07-03T14:13:01.218Z,-48
2016-07-03T14:14:01.216Z,-52
2016-07-03T14:15:01.135Z,-50
2016-07-03T14:16:01.284Z,-51
2016-07-03T14:17:01.231Z,-51
2016-07-03T14:18:01.147Z,-50
2016-07-03T14:19:01.173Z,-51
2016-07-03T14:20:01.448Z,-54
2016-07-03T14:21:01.171Z,-52
2016-07-03T14:22:01.339Z,-51
2016-07-03T14:23:01.810Z,-51
2016-07-03T14:24:01.215Z,-50
2016-07-03T14:25:01.284Z,-52
2016-07-03T14:26:01.363Z,-51
2016-07-03T14:27:01.612Z,-57
2016-07-03T14:28:01.271Z,-51
2016-07-03T14:29:01.830Z,-49
2016-07-03T14:30:01.279Z,-51
2016-07-03T14:31:01.705Z,-48
2016-07-03T14:32:03.712Z,-50
2016-07-03T14:33:01.270Z,-50
2016-07-03T14:34:01.441Z,-52
2016-07-03T14:35:01.647Z,-54
2016-07-03T14:36:01.214Z,-52
2016-07-03T14:37:01.629Z,-51
2016-07-03T14:38:01.298Z,-51
2016-07-03T14:39:01.320Z,-52
2016-07-03T14:40:01.210Z,-52
2016-07-03T14:41:01.198Z,-51
2016-07-03T14:42:01.217Z,-51
2016-07-03T14:43:01.271Z,-51
2016-07-03T14:44:01.271Z,-47
2016-07-03T14:45:01.519Z,-50
2016-07-03T14:46:01.263Z,-53
2016-07-03T14:47:01.918Z,-52
2016-07-03T14:48:01.268Z,-51
2016-07-03T14:49:01.297Z,-52
2016-07-03T14:50:01.308Z,-52
2016-07-03T14:51:01.196Z,-50
2016-07-03T14:52:01.177Z,-51
2016-07-03T14:53:01.304Z,-50
2016-07-03T14:54:01.263Z,-50
2016-07-03T14:55:01.233Z,-51
2016-07-03T14:56:01.167Z,-49
2016-07-03T14:57:01.251Z,-48
2016-07-03T14:58:01.190Z,-52
2016-07-03T14:59:01.425Z,-51
2016-07-03T15:00:01.579Z,-50
2016-07-03T15:01:01.208Z,-50
2016-07-03T15:02:01.743Z,-50
2016-07-03T15:03:02.175Z,-53
2016-07-03T15:04:01.300Z,-52
2016-07-03T15:05:01.627Z,-53
2016-07-03T15:06:01.234Z,-49
2016-07-03T15:07:01.273Z,-50
2016-07-03T15:08:01.385Z,-51
2016-07-03T15:09:01.230Z,-51
2016-07-03T15:10:01.341Z,-53
2016-07-03T15:11:01.373Z,-52
2016-07-03T15:12:01.653Z,-52
2016-07-03T15:13:01.447Z,-51
2016-07-03T15:14:01.294Z,-51
2016-07-03T15:15:01.401Z,-51
2016-07-03T15:16:01.299Z,-52
2016-07-03T15:17:01.462Z,-52
2016-07-03T15:18:01.469Z,-52
2016-07-03T15:19:01.281Z,-49
2016-07-03T15:20:01.254Z,-50
2016-07-03T15:21:02.286Z,-51
2016-07-03T15:22:01.308Z,-51
2016-07-03T15:23:01.194Z,-51
2016-07-03T15:24:01.498Z,-51
2016-07-03T15:25:01.465Z,-52
2016-07-03T15:26:01.455Z,-53
2016-07-03T15:27:01.709Z,-49
2016-07-03T15:28:01.392Z,-50
2016-07-03T15:29:01.769Z,-51
2016-07-03T15:30:01.624Z,-53
2016-07-03T15:31:01.434Z,-51
2016-07-03T15:32:01.353Z,-52
2016-07-03T15:33:01.166Z,-50
2016-07-03T15:34:01.189Z,-50
2016-07-03T15:35:01.481Z,-50
2016-07-03T15:36:01.315Z,-51
2016-07-03T15:37:01.275Z,-49
2016-07-03T15:38:01.324Z,-51
2016-07-03T15:39:01.318Z,-51
2016-07-03T15:40:01.270Z,-52
2016-07-03T15:41:01.367Z,-50
2016-07-03T15:42:01.261Z,-52
2016-07-03T15:43:01.444Z,-52
2016-07-03T15:44:01.494Z,-49
2016-07-03T15:45:01.300Z,-48
2016-07-03T15:46:01.323Z,-51
2016-07-03T15:47:01.337Z,-51
2016-07-03T15:48:01.877Z,-57
2016-07-03T15:49:01.246Z,-50
2016-07-03T15:50:01.296Z,-49
2016-07-03T15:51:01.257Z,-52
2016-07-03T15:52:01.235Z,-52
2016-07-03T15:53:01.581Z,-49
2016-07-03T15:54:01.454Z,-48
2016-07-03T15:55:01.391Z,-51
2016-07-03T15:56:01.223Z,-52
2016-07-03T15:57:01.279Z,-51
2016-07-03T15:58:01.243Z,-52
2016-07-03T15:59:01.373Z,-52
2016-07-03T16:00:01.264Z,-52
2016-07-03T16:01:01.321Z,-51
2016-07-03T16:02:01.362Z,-49
2016-07-03T16:03:01.294Z,-50
2016-07-03T16:04:01.312Z,-49
2016-07-03T16:05:01.411Z,-52
2016-07-03T16:06:01.335Z,-51
2016-07-03T16:07:01.274Z,-49
2016-07-03T16:08:01.591Z,-51
2016-07-03T16:09:02.477Z,-49
2016-07-03T16:10:02.107Z,-50
2016-07-03T16:11:01.864Z,-52
2016-07-03T16:12:01.560Z,-50
2016-07-03T16:13:01.335Z,-51
2016-07-03T16:14:01.370Z,-50
2016-07-03T16:15:01.514Z,-51
2016-07-03T16:16:01.479Z,-52
2016-07-03T16:17:02.148Z,-52
2016-07-03T16:18:01.484Z,-50
2016-07-03T16:19:01.328Z,-49
2016-07-03T16:20:01.396Z,-49
2016-07-03T16:21:01.957Z,-51
2016-07-03T16:22:01.459Z,-51
2016-07-03T16:23:01.549Z,-52
2016-07-03T16:24:01.509Z,-53
2016-07-03T16:25:01.618Z,-50
2016-07-03T16:26:01.430Z,-52
2016-07-03T16:27:01.426Z,-49
2016-07-03T16:28:01.393Z,-50
2016-07-03T16:29:01.400Z,-51
2016-07-03T16:30:01.428Z,-51
2016-07-03T16:31:01.309Z,-50
2016-07-03T16:32:01.463Z,-51
2016-07-03T16:33:01.479Z,-50
2016-07-03T16:34:01.341Z,-51
2016-07-03T16:35:01.387Z,-50
2016-07-03T16:36:01.382Z,-50
2016-07-03T16:37:01.452Z,-56
2016-07-03T16:38:01.515Z,-57
2016-07-03T16:39:01.290Z,-56
2016-07-03T16:40:01.355Z,-54
2016-07-03T16:41:01.350Z,-54
2016-07-03T16:42:01.392Z,-49
2016-07-03T16:43:01.358Z,-49
2016-07-03T16:44:01.342Z,-54
2016-07-03T16:45:01.750Z,-49
2016-07-03T16:46:01.365Z,-50
2016-07-03T16:47:01.307Z,-50
2016-07-03T16:48:01.307Z,-48
2016-07-03T16:49:01.338Z,-51
2016-07-03T16:50:01.496Z,-51
2016-07-03T16:51:01.314Z,-51
2016-07-03T16:52:01.379Z,-52
2016-07-03T16:53:01.455Z,-51
2016-07-03T16:54:01.744Z,-49
2016-07-03T16:55:01.462Z,-50
2016-07-03T16:56:01.499Z,-51
2016-07-03T16:57:01.445Z,-52
2016-07-03T16:58:01.325Z,-54
2016-07-03T16:59:01.346Z,-54
2016-07-03T17:00:01.288Z,-54
2016-07-03T17:01:01.289Z,-55
2016-07-03T17:02:01.303Z,-55
2016-07-03T17:03:01.466Z,-55
2016-07-03T17:04:01.331Z,-54
2016-07-03T17:05:01.338Z,-54
2016-07-03T17:06:01.411Z,-55
2016-07-03T17:07:03.212Z,-52
2016-07-03T17:08:01.406Z,-53
2016-07-03T17:09:01.378Z,-54
2016-07-03T17:10:01.270Z,-53
2016-07-03T17:11:01.538Z,-53
2016-07-03T17:12:01.328Z,-53
2016-07-03T17:13:01.630Z,-54
2016-07-03T17:14:01.272Z,-55
2016-07-03T17:15:01.356Z,-52
2016-07-03T17:16:01.309Z,-53
2016-07-03T17:17:01.333Z,-52
2016-07-03T17:18:01.798Z,-55
2016-07-03T17:19:01.367Z,-54
2016-07-03T17:20:01.331Z,-53
2016-07-03T17:21:01.650Z,-53
2016-07-03T17:22:01.515Z,-50
2016-07-03T17:23:01.991Z,-53
2016-07-03T17:24:01.719Z,-53
2016-07-03T17:25:01.406Z,-53
2016-07-03T17:26:01.417Z,-53
2016-07-03T17:27:01.420Z,-53
2016-07-03T17:28:01.644Z,-48
2016-07-03T17:29:01.370Z,-54
2016-07-03T17:30:01.864Z,-52
2016-07-03T17:31:01.377Z,-53
2016-07-03T17:32:01.343Z,-54
2016-07-03T17:33:01.392Z,-56
2016-07-03T17:34:01.334Z,-53
2016-07-03T17:35:01.613Z,-53
2016-07-03T17:36:01.372Z,-54
2016-07-03T17:37:01.388Z,-52
2016-07-03T17:38:01.261Z,-49
2016-07-03T17:39:01.373Z,-54
2016-07-03T17:40:01.300Z,-54
2016-07-03T17:41:01.300Z,-53
2016-07-03T17:42:01.354Z,-51
2016-07-03T17:43:01.389Z,-53
2016-07-03T17:44:03.123Z,-52
2016-07-03T17:45:01.307Z,-53
2016-07-03T17:46:01.310Z,-54
2016-07-03T17:47:01.410Z,-52
2016-07-03T17:48:01.361Z,-54
2016-07-03T17:49:01.626Z,-54
2016-07-03T17:50:01.305Z,-55
2016-07-03T17:51:01.355Z,-54
2016-07-03T17:52:01.360Z,-54
2016-07-03T17:53:01.495Z,-54
2016-07-03T17:54:01.339Z,-55
2016-07-03T17:55:01.970Z,-54
2016-07-03T17:56:01.900Z,-54
2016-07-03T17:57:02.578Z,-53
2016-07-03T17:58:02.834Z,-55
2016-07-03T17:59:01.391Z,-54
2016-07-03T18:00:01.810Z,-55
2016-07-03T18:01:01.547Z,-56
2016-07-03T18:02:01.795Z,-54
2016-07-03T18:03:02.578Z,-54
2016-07-03T18:04:01.522Z,-53
2016-07-03T18:05:01.492Z,-55
2016-07-03T18:06:01.473Z,-55
2016-07-03T18:07:01.463Z,-54
2016-07-03T18:08:01.517Z,-52
2016-07-03T18:09:01.491Z,-54
2016-07-03T18:10:02.391Z,-54
2016-07-03T18:11:01.671Z,-55
2016-07-03T18:12:01.530Z,-56
2016-07-03T18:13:01.494Z,-54
2016-07-03T18:14:01.512Z,-54
2016-07-03T18:15:01.444Z,-54
2016-07-03T18:16:01.523Z,-53
2016-07-03T18:17:02.186Z,-53
2016-07-03T18:18:01.507Z,-54
2016-07-03T18:19:01.649Z,-51
2016-07-03T18:20:02.436Z,-57
2016-07-03T18:21:01.825Z,-56
2016-07-03T18:22:02.055Z,-54
2016-07-03T18:23:01.823Z,-56
2016-07-03T18:24:01.552Z,-55
2016-07-03T18:25:02.493Z,-55
2016-07-03T18:26:01.484Z,-56
2016-07-03T18:27:01.424Z,-55
2016-07-03T18:28:01.550Z,-54
2016-07-03T18:29:01.493Z,-54
2016-07-03T18:30:01.659Z,-55
2016-07-03T18:31:01.865Z,-53
2016-07-03T18:32:01.866Z,-53
2016-07-03T18:33:01.708Z,-53
2016-07-03T18:34:01.642Z,-49
2016-07-03T18:35:01.970Z,-51
2016-07-03T18:36:01.727Z,-49
2016-07-03T18:37:01.628Z,-53
2016-07-03T18:38:01.529Z,-52
2016-07-03T18:39:02.358Z,-51
2016-07-03T18:40:01.768Z,-50
2016-07-03T18:41:01.621Z,-51
2016-07-03T18:42:01.850Z,-49
2016-07-03T18:43:02.194Z,-57
2016-07-03T18:44:01.840Z,-55
2016-07-03T18:45:01.862Z,-52
2016-07-03T18:46:01.697Z,-51
2016-07-03T18:47:01.489Z,-47
2016-07-03T18:48:01.636Z,-52
2016-07-03T18:49:01.927Z,-52
2016-07-03T18:50:01.523Z,-50
2016-07-03T18:51:02.001Z,-52
2016-07-03T18:52:01.598Z,-53
2016-07-03T18:53:02.392Z,-50
2016-07-03T18:54:02.549Z,-52
2016-07-03T18:55:01.814Z,-51
2016-07-03T18:56:01.952Z,-51
2016-07-03T18:57:01.551Z,-51
2016-07-03T18:58:01.576Z,-53
2016-07-03T18:59:01.895Z,-52
2016-07-03T19:00:02.366Z,-50
2016-07-03T19:01:01.796Z,-51
2016-07-03T19:02:01.792Z,-50
2016-07-03T19:03:01.890Z,-53
2016-07-03T19:04:01.701Z,-49
2016-07-03T19:05:01.960Z,-51
2016-07-03T19:06:01.589Z,-54
2016-07-03T19:07:02.333Z,-52
2016-07-03T19:08:02.066Z,-53
2016-07-03T19:09:02.044Z,-53
2016-07-03T19:10:03.543Z,-54
2016-07-03T19:11:01.754Z,-54
2016-07-03T19:12:01.946Z,-52
2016-07-03T19:13:01.579Z,-52
2016-07-03T19:14:01.862Z,-54
2016-07-03T19:15:01.529Z,-51
2016-07-03T19:16:01.680Z,-50
2016-07-03T19:17:01.685Z,-51
2016-07-03T19:18:01.942Z,-54
2016-07-03T19:19:02.355Z,-51
2016-07-03T19:20:01.607Z,-51
2016-07-03T19:21:02.779Z,-50
2016-07-03T19:22:01.602Z,-50
2016-07-03T19:23:01.733Z,-54
2016-07-03T19:24:01.948Z,-53
2016-07-03T19:25:01.819Z,-47
2016-07-03T19:26:01.909Z,-51
2016-07-03T19:27:01.809Z,-51
2016-07-03T19:28:01.615Z,-51
2016-07-03T19:29:01.673Z,-53
2016-07-03T19:30:01.705Z,-53
2016-07-03T19:31:01.866Z,-53
2016-07-03T19:32:01.697Z,-50
2016-07-03T19:33:01.783Z,-50
2016-07-03T19:34:01.570Z,-49
2016-07-03T19:35:03.263Z,-51
2016-07-03T19:36:01.656Z,-51
2016-07-03T19:37:01.674Z,-53
2016-07-03T19:38:02.173Z,-55
2016-07-03T19:39:01.743Z,-51
2016-07-03T19:40:02.989Z,-52
2016-07-03T19:41:01.625Z,-52
2016-07-03T19:42:01.579Z,-52
2016-07-03T19:43:02.241Z,-52
2016-07-03T19:44:01.534Z,-48
2016-07-03T19:45:01.709Z,-53
2016-07-03T19:46:02.350Z,-50
2016-07-03T19:47:01.561Z,-48
2016-07-03T19:48:01.912Z,-52
2016-07-03T19:49:02.391Z,-53
2016-07-03T19:50:01.929Z,-52
2016-07-03T19:51:02.574Z,-53
2016-07-03T19:52:01.729Z,-53
2016-07-03T19:53:02.221Z,-53
2016-07-03T19:54:01.651Z,-53
2016-07-03T19:55:01.683Z,-52
2016-07-03T19:56:02.392Z,-51
2016-07-03T19:57:01.776Z,-50
2016-07-03T19:58:01.826Z,-51
2016-07-03T19:59:01.658Z,-50
2016-07-03T20:00:01.888Z,-51
2016-07-03T20:01:01.688Z,-50
2016-07-03T20:02:01.826Z,-53
2016-07-03T20:03:01.884Z,-53
2016-07-03T20:04:01.773Z,-51
2016-07-03T20:05:01.743Z,-52
2016-07-03T20:06:01.671Z,-52
2016-07-03T20:07:01.943Z,-49
2016-07-03T20:08:01.683Z,-51
2016-07-03T20:09:01.728Z,-51
2016-07-03T20:10:01.836Z,-53
2016-07-03T20:11:01.648Z,-51
2016-07-03T20:12:01.770Z,-52
2016-07-03T20:13:02.052Z,-52
2016-07-03T20:14:02.427Z,-51
2016-07-03T20:15:02.488Z,-50
2016-07-03T20:16:02.718Z,-49
2016-07-03T20:17:02.088Z,-49
2016-07-03T20:18:03.000Z,-51
2016-07-03T20:19:02.494Z,-53
2016-07-03T20:20:01.668Z,-54
2016-07-03T20:21:01.662Z,-51
2016-07-03T20:22:01.893Z,-52
2016-07-03T20:23:01.764Z,-51
2016-07-03T20:24:01.699Z,-50
2016-07-03T20:25:01.590Z,-47
2016-07-03T20:26:01.698Z,-50
2016-07-03T20:27:02.750Z,-50
2016-07-03T20:28:01.558Z,-50
2016-07-03T20:29:01.608Z,-51
2016-07-03T20:30:01.682Z,-50
2016-07-03T20:31:01.752Z,-51
2016-07-03T20:32:01.707Z,-49
2016-07-03T20:33:01.886Z,-51
2016-07-03T20:34:01.721Z,-52
2016-07-03T20:35:01.665Z,-54
2016-07-03T20:36:01.647Z,-54
2016-07-03T20:37:02.034Z,-51
2016-07-03T20:38:01.675Z,-50
2016-07-03T20:39:02.536Z,-51
2016-07-03T20:40:01.648Z,-52
2016-07-03T20:41:01.678Z,-51
2016-07-03T20:42:01.594Z,-52
2016-07-03T20:43:01.891Z,-50
2016-07-03T20:44:01.766Z,-50
2016-07-03T20:45:01.781Z,-53
2016-07-03T20:46:01.772Z,-48
2016-07-03T20:47:01.678Z,-51
2016-07-03T20:48:01.945Z,-51
2016-07-03T20:49:04.844Z,-52
2016-07-03T20:50:02.035Z,-50
2016-07-03T20:51:01.796Z,-47
2016-07-03T20:52:01.609Z,-49
2016-07-03T20:53:02.808Z,-50
2016-07-03T20:54:01.565Z,-48
2016-07-03T20:55:01.629Z,-51
2016-07-03T20:56:01.655Z,-47
2016-07-03T20:57:01.715Z,-49
2016-07-03T20:58:01.648Z,-49
2016-07-03T20:59:01.617Z,-53
2016-07-03T21:00:01.697Z,-51
2016-07-03T21:01:02.193Z,-51
2016-07-03T21:02:03.255Z,-51
2016-07-03T21:03:02.810Z,-51
2016-07-03T21:04:02.457Z,-53
2016-07-03T21:05:02.952Z,-50
2016-07-03T21:06:03.617Z,-48
2016-07-03T21:07:02.601Z,-52
2016-07-03T21:08:03.056Z,-52
2016-07-03T21:09:02.369Z,-51
2016-07-03T21:10:02.325Z,-50
2016-07-03T21:11:02.327Z,-51
2016-07-03T21:12:02.561Z,-49
2016-07-03T21:14:02.353Z,-50
2016-07-03T21:14:14.995Z,-52
2016-07-03T21:15:15.097Z,-49
2016-07-03T21:16:14.465Z,-52
2016-07-03T21:17:14.807Z,-50
2016-07-03T21:18:14.790Z,-53
2016-07-03T21:19:14.261Z,-50
2016-07-03T21:20:14.418Z,-51
2016-07-03T21:21:14.851Z,-50
2016-07-03T21:22:14.463Z,-50
2016-07-03T21:23:14.137Z,-51
2016-07-03T21:24:14.508Z,-49
2016-07-03T21:25:14.339Z,-52
2016-07-03T21:26:14.278Z,-51
2016-07-03T21:27:14.192Z,-50
2016-07-03T21:28:14.148Z,-52
2016-07-03T21:29:14.470Z,-50
2016-07-03T21:30:14.770Z,-50
2016-07-03T21:31:15.069Z,-51
2016-07-03T21:32:14.673Z,-51
2016-07-03T21:33:14.402Z,-48
2016-07-03T21:34:14.197Z,-51
2016-07-03T21:35:14.631Z,-50
2016-07-03T21:36:14.374Z,-50
2016-07-03T21:37:14.642Z,-51
2016-07-03T21:38:14.760Z,-50
2016-07-03T21:39:14.501Z,-51
2016-07-03T21:40:14.468Z,-52
2016-07-03T21:41:14.603Z,-51
2016-07-03T21:42:14.447Z,-49
2016-07-03T21:43:14.755Z,-51
2016-07-03T21:44:14.214Z,-50
2016-07-03T21:45:15.219Z,-49
2016-07-03T21:46:14.190Z,-49
2016-07-03T21:47:14.145Z,-51
2016-07-03T21:48:14.303Z,-50
2016-07-03T21:49:14.435Z,-51
2016-07-03T21:50:14.175Z,-51
2016-07-03T21:51:14.198Z,-47
2016-07-03T21:52:14.179Z,-48
2016-07-03T21:53:14.155Z,-49
2016-07-03T21:54:14.239Z,-50
2016-07-03T21:55:14.144Z,-50
2016-07-03T21:56:14.105Z,-49
2016-07-03T21:57:14.183Z,-50
2016-07-03T21:58:14.146Z,-48
2016-07-03T21:59:14.104Z,-50
2016-07-03T22:00:14.201Z,-50
2016-07-03T22:01:14.152Z,-50
2016-07-03T22:02:35.093Z,-50
2016-07-03T22:03:14.186Z,-49
2016-07-03T22:04:14.247Z,-51
2016-07-03T22:05:15.157Z,-50
2016-07-03T22:06:14.154Z,-47
2016-07-03T22:07:14.122Z,-50
2016-07-03T22:08:14.139Z,-49
2016-07-03T22:09:14.168Z,-50
2016-07-03T22:10:14.229Z,-52
2016-07-03T22:11:14.210Z,-50
2016-07-03T22:12:14.211Z,-53
2016-07-03T22:13:14.208Z,-49
2016-07-03T22:14:14.090Z,-51
2016-07-03T22:15:14.167Z,-52
2016-07-03T22:16:14.123Z,-52
2016-07-03T22:17:14.233Z,-54
2016-07-03T22:18:14.085Z,-53
2016-07-03T22:19:14.116Z,-52
2016-07-03T22:20:14.269Z,-53
2016-07-03T22:21:14.641Z,-53
2016-07-03T22:22:14.276Z,-51
2016-07-03T22:23:14.265Z,-50
2016-07-03T22:24:14.109Z,-51
2016-07-03T22:25:14.295Z,-51
2016-07-03T22:26:15.267Z,-51
2016-07-03T22:27:14.336Z,-50
2016-07-03T22:28:14.731Z,-48
2016-07-03T22:29:15.426Z,-50
2016-07-03T22:30:14.578Z,-51
2016-07-03T22:31:14.897Z,-50
2016-07-03T22:32:15.863Z,-50
2016-07-03T22:33:14.968Z,-51
2016-07-03T22:34:14.456Z,-52
2016-07-03T22:35:14.129Z,-50
2016-07-03T22:36:14.137Z,-52
2016-07-03T22:37:15.106Z,-53
2016-07-03T22:38:14.188Z,-50
2016-07-03T22:39:14.274Z,-51
2016-07-03T22:40:14.212Z,-52
2016-07-03T22:41:14.152Z,-50
2016-07-03T22:42:14.474Z,-48
2016-07-03T22:43:14.231Z,-49
2016-07-03T22:44:14.340Z,-51
2016-07-03T22:45:14.213Z,-51
2016-07-03T22:46:14.538Z,-52
2016-07-03T22:47:14.167Z,-52
2016-07-03T22:48:14.278Z,-53
2016-07-03T22:49:14.194Z,-51
2016-07-03T22:50:14.258Z,-51
2016-07-03T22:51:14.189Z,-51
2016-07-03T22:52:14.601Z,-54
2016-07-03T22:53:14.244Z,-50
2016-07-03T22:54:14.234Z,-51
2016-07-03T22:55:14.296Z,-52
2016-07-03T22:56:14.917Z,-50
2016-07-03T22:57:14.278Z,-52
2016-07-03T22:58:14.387Z,-51
2016-07-03T22:59:14.429Z,-51
2016-07-03T23:00:14.196Z,-50
2016-07-03T23:01:14.305Z,-49
2016-07-03T23:02:14.226Z,-48
2016-07-03T23:03:14.286Z,-48
2016-07-03T23:04:14.323Z,-49
2016-07-03T23:05:14.288Z,-49
2016-07-03T23:06:14.179Z,-48
2016-07-03T23:07:14.239Z,-49
2016-07-03T23:08:14.177Z,-50
2016-07-03T23:09:14.157Z,-53
2016-07-03T23:10:14.352Z,-52
2016-07-03T23:11:14.247Z,-53
2016-07-03T23:12:14.218Z,-50
2016-07-03T23:13:14.268Z,-52
2016-07-03T23:14:14.264Z,-51
2016-07-03T23:15:14.244Z,-51
2016-07-03T23:16:14.221Z,-50
2016-07-03T23:17:14.232Z,-49
2016-07-03T23:18:14.332Z,-51
2016-07-03T23:19:14.227Z,-51
2016-07-03T23:20:14.854Z,-51
2016-07-03T23:21:14.185Z,-48
2016-07-03T23:22:14.229Z,-50
2016-07-03T23:23:14.235Z,-49
2016-07-03T23:24:14.186Z,-49
2016-07-03T23:25:14.816Z,-52
2016-07-03T23:26:14.575Z,-51
2016-07-03T23:27:14.236Z,-50
2016-07-03T23:28:14.222Z,-51
2016-07-03T23:29:14.496Z,-51
2016-07-03T23:30:15.652Z,-51
2016-07-03T23:31:15.542Z,-50
2016-07-03T23:32:15.230Z,-50
2016-07-03T23:33:15.422Z,-52
2016-07-03T23:34:15.602Z,-50
2016-07-03T23:35:14.162Z,-50
2016-07-03T23:36:14.189Z,-51
2016-07-03T23:37:14.217Z,-51
2016-07-03T23:38:14.278Z,-51
2016-07-03T23:39:14.833Z,-50
2016-07-03T23:40:14.256Z,-50
2016-07-03T23:41:14.201Z,-50
2016-07-03T23:42:14.254Z,-50
2016-07-03T23:43:14.944Z,-51
2016-07-03T23:44:14.707Z,-52
2016-07-03T23:45:14.174Z,-52
2016-07-03T23:46:14.250Z,-50
2016-07-03T23:47:14.220Z,-50
2016-07-03T23:48:14.160Z,-51
2016-07-03T23:49:14.161Z,-51
2016-07-03T23:50:14.220Z,-50
2016-07-03T23:51:14.162Z,-48
2016-07-03T23:52:14.242Z,-50
2016-07-03T23:53:14.165Z,-51
2016-07-03T23:54:14.253Z,-51
2016-07-03T23:55:14.238Z,-50
2016-07-03T23:56:14.225Z,-50
2016-07-03T23:57:14.248Z,-50
2016-07-03T23:58:14.239Z,-50
2016-07-03T23:59:16.217Z,-51
